Time;durP1;ratioP1;P1;durP2;ratioP2;P2;SDS_P1;SDS_P2;PMS_P1;PMS_P2;Temp;Humidity;BMP_temperature;BMP_pressure;BME280_temperature;BME280_humidity;BME280_pressure;Samples;Min_cycle;Max_cycle;Signal;HPM_P1;HPM_P2
2024/02/22 00:00:26;;;;;;;14.18;9.80;;;;;;;;;;5011367;28;20183;-71
2024/02/22 00:02:51;;;;;;;14.43;10.55;;;;;;;;;;5011012;28;20217;-69
2024/02/22 00:05:16;;;;;;;16.27;11.02;;;;;;;;;;5013179;28;20179;-69
2024/02/22 00:07:42;;;;;;;15.70;9.75;;;;;;;;;;5011285;28;20233;-69
2024/02/22 00:10:08;;;;;;;16.30;10.63;;;;;;;;;;5006519;28;20269;-70
2024/02/22 00:12:37;;;;;;;14.55;9.25;;;;;;;;;;5000725;28;20731;-68
2024/02/22 00:15:03;;;;;;;15.23;10.40;;;;;;;;;;5001932;28;20191;-68
2024/02/22 00:17:28;;;;;;;13.30;9.43;;;;;;;;;;4977816;28;20187;-66
2024/02/22 01:52:42;;;;;;;35.13;13.00;;;;;;;;;;5010693;28;20735;-69
2024/02/22 01:55:07;;;;;;;32.47;13.40;;;;;;;;;;5011397;28;20203;-69
2024/02/22 01:57:33;;;;;;;35.80;13.48;;;;;;;;;;4993842;28;20175;-68
2024/02/22 01:59:58;;;;;;;34.75;11.90;;;;;;;;;;4993492;28;20179;-68
2024/02/22 02:02:24;;;;;;;37.67;13.25;;;;;;;;;;5002136;28;20215;-68
2024/02/22 02:04:49;;;;;;;34.70;11.82;;;;;;;;;;5003230;28;20182;-69
2024/02/22 02:07:15;;;;;;;37.05;13.32;;;;;;;;;;5005825;28;20176;-69
2024/02/22 02:09:40;;;;;;;32.78;11.75;;;;;;;;;;5003397;28;20179;-69
2024/02/22 02:12:06;;;;;;;29.45;11.15;;;;;;;;;;5005651;28;20206;-69
2024/02/22 02:14:31;;;;;;;38.67;11.77;;;;;;;;;;5008866;28;20290;-69
2024/02/22 02:16:56;;;;;;;39.53;11.45;;;;;;;;;;5008419;28;20262;-69
2024/02/22 02:19:24;;;;;;;25.63;10.35;;;;;;;;;;5004412;28;20537;-69
2024/02/22 02:22:10;;;;;;;33.25;10.63;;;;;;;;;;5009426;28;20223;-69
2024/02/22 02:24:44;;;;;;;28.75;9.68;;;;;;;;;;5005789;28;20261;-68
2024/02/22 02:27:10;;;;;;;36.05;10.73;;;;;;;;;;5007940;28;20193;-69
2024/02/22 02:29:36;;;;;;;29.98;10.85;;;;;;;;;;5009073;28;20210;-68
2024/02/22 02:32:01;;;;;;;30.58;10.75;;;;;;;;;;4991532;28;20759;-70
2024/02/22 02:34:26;;;;;;;33.15;9.77;;;;;;;;;;5009978;28;20313;-68
2024/02/22 02:36:51;;;;;;;34.65;9.85;;;;;;;;;;5005046;28;20724;-69
2024/02/22 02:39:16;;;;;;;33.15;11.10;;;;;;;;;;4990268;28;20258;-69
2024/02/22 02:41:42;;;;;;;36.15;11.10;;;;;;;;;;5008935;28;20226;-68
2024/02/22 02:44:07;;;;;;;42.30;9.20;;;;;;;;;;5010108;28;20266;-69
2024/02/22 02:46:32;;;;;;;41.30;9.10;;;;;;;;;;5011370;28;20187;-69
2024/02/22 02:48:57;;;;;;;27.95;8.68;;;;;;;;;;5013138;28;20535;-69
2024/02/22 02:51:22;;;;;;;26.83;9.35;;;;;;;;;;5012074;28;20717;-70
2024/02/22 02:53:48;;;;;;;33.80;9.98;;;;;;;;;;4995236;28;20187;-69
2024/02/22 02:56:13;;;;;;;31.58;8.13;;;;;;;;;;5010862;28;20197;-69
2024/02/22 02:58:38;;;;;;;36.20;9.07;;;;;;;;;;5007578;28;20179;-69
2024/02/22 03:01:04;;;;;;;21.48;7.30;;;;;;;;;;5006908;28;20179;-69
2024/02/22 03:03:31;;;;;;;31.05;8.20;;;;;;;;;;5031867;22;20226;-72
2024/02/22 03:05:56;;;;;;;35.22;9.10;;;;;;;;;;5009140;28;20183;-71
2024/02/22 03:08:21;;;;;;;33.35;10.60;;;;;;;;;;5011963;28;20175;-73
2024/02/22 03:10:46;;;;;;;38.23;9.53;;;;;;;;;;5009839;28;20716;-71
2024/02/22 03:13:11;;;;;;;30.88;9.32;;;;;;;;;;4995687;28;20203;-72
2024/02/22 03:15:37;;;;;;;24.38;9.73;;;;;;;;;;4989589;28;20212;-72
2024/02/22 03:18:06;;;;;;;38.53;11.48;;;;;;;;;;4987696;28;20556;-72
2024/02/22 03:20:31;;;;;;;34.13;11.20;;;;;;;;;;4990488;28;20179;-72
2024/02/22 03:22:56;;;;;;;36.90;11.40;;;;;;;;;;4987259;28;20306;-72
2024/02/22 03:25:21;;;;;;;27.88;11.25;;;;;;;;;;4988540;28;20192;-72
2024/02/22 03:27:49;;;;;;;43.83;11.05;;;;;;;;;;4985340;28;20187;-72
2024/02/22 03:30:16;;;;;;;37.38;10.68;;;;;;;;;;4990709;28;20204;-72
2024/02/22 03:32:41;;;;;;;44.63;11.13;;;;;;;;;;4983565;28;20605;-71
2024/02/22 03:35:06;;;;;;;27.33;9.32;;;;;;;;;;4988721;28;20211;-72
2024/02/22 03:37:31;;;;;;;33.97;9.13;;;;;;;;;;4985981;28;20691;-72
2024/02/22 03:39:57;;;;;;;34.72;10.55;;;;;;;;;;4990312;28;20183;-72
2024/02/22 03:42:22;;;;;;;26.13;8.95;;;;;;;;;;4986465;28;20191;-72
2024/02/22 03:44:48;;;;;;;27.02;8.27;;;;;;;;;;4990961;28;20207;-72
2024/02/22 03:47:13;;;;;;;38.97;10.00;;;;;;;;;;4983915;28;20176;-72
2024/02/22 03:49:38;;;;;;;36.00;8.38;;;;;;;;;;4988960;28;20180;-72
2024/02/22 03:52:07;;;;;;;33.30;7.93;;;;;;;;;;4980408;28;20202;-73
2024/02/22 03:54:34;;;;;;;31.42;9.27;;;;;;;;;;4982362;28;20914;-73
2024/02/22 03:56:59;;;;;;;45.03;8.60;;;;;;;;;;4988624;28;20266;-73
2024/02/22 03:59:24;;;;;;;25.65;7.40;;;;;;;;;;4987656;28;20239;-73
2024/02/22 04:01:50;;;;;;;29.75;8.38;;;;;;;;;;4989045;28;20207;-71
2024/02/22 04:04:15;;;;;;;25.55;7.18;;;;;;;;;;4984742;28;20194;-73
2024/02/22 04:06:41;;;;;;;36.10;9.35;;;;;;;;;;4984269;28;20175;-73
2024/02/22 04:09:06;;;;;;;36.10;9.45;;;;;;;;;;4989685;28;20243;-73
2024/02/22 04:11:32;;;;;;;39.65;9.50;;;;;;;;;;4986554;28;20180;-72
2024/02/22 04:13:57;;;;;;;32.15;9.00;;;;;;;;;;4988702;28;20242;-73
2024/02/22 04:16:22;;;;;;;28.42;7.30;;;;;;;;;;4988414;28;20183;-73
2024/02/22 04:18:47;;;;;;;26.73;7.93;;;;;;;;;;4989352;28;20168;-73
2024/02/22 04:21:12;;;;;;;29.73;6.40;;;;;;;;;;4982956;28;20176;-72
2024/02/22 04:23:38;;;;;;;30.42;6.13;;;;;;;;;;4986854;28;20549;-72
2024/02/22 04:26:03;;;;;;;28.08;6.72;;;;;;;;;;4983251;28;20183;-72
2024/02/22 04:28:28;;;;;;;24.67;6.72;;;;;;;;;;4988754;28;20179;-73
2024/02/22 04:30:53;;;;;;;28.40;6.43;;;;;;;;;;4989176;28;20184;-72
2024/02/22 04:33:19;;;;;;;20.50;5.88;;;;;;;;;;4986623;28;20230;-73
2024/02/22 04:35:44;;;;;;;26.92;6.63;;;;;;;;;;4982232;28;20196;-73
2024/02/22 04:38:10;;;;;;;32.53;7.80;;;;;;;;;;4988634;28;20555;-73
2024/02/22 04:40:38;;;;;;;28.35;6.70;;;;;;;;;;4987655;28;20176;-72
2024/02/22 04:43:04;;;;;;;23.92;5.93;;;;;;;;;;4984450;28;20274;-73
2024/02/22 04:45:30;;;;;;;24.25;6.05;;;;;;;;;;4988840;28;20262;-73
2024/02/22 04:47:55;;;;;;;28.92;6.85;;;;;;;;;;4988414;28;20203;-72
2024/02/22 04:50:20;;;;;;;23.15;6.18;;;;;;;;;;4987964;28;20663;-73
2024/02/22 04:52:45;;;;;;;24.67;5.15;;;;;;;;;;4983101;28;20198;-73
2024/02/22 04:55:12;;;;;;;28.63;5.38;;;;;;;;;;4985995;28;20305;-72
2024/02/22 04:57:37;;;;;;;21.42;5.97;;;;;;;;;;4987140;28;20215;-72
2024/02/22 05:00:05;;;;;;;25.58;5.40;;;;;;;;;;4985894;28;20639;-73
2024/02/22 05:02:30;;;;;;;23.27;4.40;;;;;;;;;;4985598;28;20211;-72
2024/02/22 05:04:55;;;;;;;26.13;5.22;;;;;;;;;;4987061;28;20192;-72
2024/02/22 05:07:21;;;;;;;22.88;5.78;;;;;;;;;;4986635;28;20563;-72
2024/02/22 05:09:47;;;;;;;22.95;4.63;;;;;;;;;;4989623;28;21037;-71
2024/02/22 05:12:12;;;;;;;20.40;4.70;;;;;;;;;;4989746;28;20213;-72
2024/02/22 05:14:37;;;;;;;16.70;4.45;;;;;;;;;;4988134;28;20219;-72
2024/02/22 05:17:02;;;;;;;22.77;4.72;;;;;;;;;;4988419;28;20186;-72
2024/02/22 05:19:27;;;;;;;22.65;4.85;;;;;;;;;;4988143;28;20195;-72
2024/02/22 05:21:53;;;;;;;21.90;4.40;;;;;;;;;;4991044;28;20215;-72
2024/02/22 05:24:18;;;;;;;24.35;4.68;;;;;;;;;;4984951;28;20267;-73
2024/02/22 05:26:44;;;;;;;29.52;4.00;;;;;;;;;;4986283;28;20251;-72
2024/02/22 05:29:09;;;;;;;19.65;4.03;;;;;;;;;;4992126;28;20191;-71
2024/02/22 05:31:34;;;;;;;15.00;4.32;;;;;;;;;;4991125;28;20183;-73
2024/02/22 05:33:59;;;;;;;23.17;5.00;;;;;;;;;;4986828;28;20179;-73
2024/02/22 05:36:25;;;;;;;20.53;4.50;;;;;;;;;;4990045;28;20208;-72
2024/02/22 05:38:50;;;;;;;14.90;3.20;;;;;;;;;;4993553;28;20176;-72
2024/02/22 05:41:15;;;;;;;18.73;4.60;;;;;;;;;;4990106;28;20179;-72
2024/02/22 05:43:41;;;;;;;23.53;4.47;;;;;;;;;;4986792;28;20195;-72
2024/02/22 05:46:06;;;;;;;16.30;3.60;;;;;;;;;;4987103;28;20274;-72
2024/02/22 05:48:31;;;;;;;16.90;3.80;;;;;;;;;;4992297;28;20234;-72
2024/02/22 05:50:56;;;;;;;20.73;4.37;;;;;;;;;;4986813;28;20188;-71
2024/02/22 05:53:22;;;;;;;17.53;3.60;;;;;;;;;;4991307;28;20200;-71
2024/02/22 05:55:47;;;;;;;18.43;4.37;;;;;;;;;;4985953;28;20702;-72
2024/02/22 05:58:18;;;;;;;14.10;4.60;;;;;;;;;;4991091;28;20230;-72
2024/02/22 06:00:44;;;;;;;15.97;3.93;;;;;;;;;;4990197;28;20183;-72
2024/02/22 06:03:09;;;;;;;16.80;4.57;;;;;;;;;;4987814;28;20215;-72
2024/02/22 06:05:37;;;;;;;12.67;4.70;;;;;;;;;;4987304;28;20266;-72
2024/02/22 06:08:03;;;;;;;16.53;3.53;;;;;;;;;;4991457;28;20192;-72
2024/02/22 06:10:29;;;;;;;15.87;4.57;;;;;;;;;;4990173;28;20194;-72
2024/02/22 06:12:54;;;;;;;17.03;4.17;;;;;;;;;;4991741;28;20208;-72
2024/02/22 06:15:19;;;;;;;28.23;5.27;;;;;;;;;;4989487;28;20199;-72
2024/02/22 06:17:44;;;;;;;17.60;4.20;;;;;;;;;;4987805;28;20176;-72
2024/02/22 06:20:10;;;;;;;19.47;5.83;;;;;;;;;;4986407;28;20182;-72
2024/02/22 06:22:35;;;;;;;21.90;4.77;;;;;;;;;;4987812;28;20196;-72
2024/02/22 06:25:00;;;;;;;11.67;3.57;;;;;;;;;;4991677;28;20182;-73
2024/02/22 06:27:25;;;;;;;19.90;4.27;;;;;;;;;;4986854;28;20175;-71
2024/02/22 06:29:51;;;;;;;13.17;3.70;;;;;;;;;;4991780;28;20186;-71
2024/02/22 06:32:16;;;;;;;15.47;4.50;;;;;;;;;;4990822;28;20245;-70
2024/02/22 06:34:42;;;;;;;15.23;4.60;;;;;;;;;;4989872;28;20278;-71
2024/02/22 06:37:08;;;;;;;14.70;3.80;;;;;;;;;;4984385;28;20177;-71
2024/02/22 06:39:33;;;;;;;11.83;4.13;;;;;;;;;;4980348;28;20183;-72
2024/02/22 06:41:58;;;;;;;17.83;4.73;;;;;;;;;;4991899;28;20213;-72
2024/02/22 06:44:23;;;;;;;16.60;4.63;;;;;;;;;;4990048;28;20209;-71
2024/02/22 06:46:49;;;;;;;26.60;5.47;;;;;;;;;;4993048;28;20198;-71
2024/02/22 06:49:17;;;;;;;15.77;4.73;;;;;;;;;;4993859;28;20186;-71
2024/02/22 06:51:42;;;;;;;19.70;4.57;;;;;;;;;;4992553;28;20640;-70
2024/02/22 06:54:08;;;;;;;23.33;6.57;;;;;;;;;;4984284;28;20274;-71
2024/02/22 06:56:33;;;;;;;18.07;5.47;;;;;;;;;;4978185;28;20184;-71
2024/02/22 06:58:58;;;;;;;16.27;4.87;;;;;;;;;;4985923;28;20276;-71
2024/02/22 07:01:23;;;;;;;22.00;6.03;;;;;;;;;;4986873;28;20556;-72
2024/02/22 07:03:49;;;;;;;22.77;5.97;;;;;;;;;;4990355;28;20184;-72
2024/02/22 07:06:15;;;;;;;24.60;5.37;;;;;;;;;;4993059;28;20218;-73
2024/02/22 07:08:40;;;;;;;19.47;4.87;;;;;;;;;;4991666;28;20176;-72
2024/02/22 07:11:06;;;;;;;20.93;5.40;;;;;;;;;;4983513;28;20227;-73
2024/02/22 07:13:34;;;;;;;21.27;5.93;;;;;;;;;;4988438;28;20207;-74
2024/02/22 07:15:59;;;;;;;21.37;6.83;;;;;;;;;;4994552;28;20272;-74
2024/02/22 07:18:24;;;;;;;19.30;5.37;;;;;;;;;;4995023;28;20176;-73
2024/02/22 07:20:49;;;;;;;20.57;5.80;;;;;;;;;;4993472;28;20180;-74
2024/02/22 07:23:15;;;;;;;20.60;5.13;;;;;;;;;;4992435;28;20229;-74
2024/02/22 07:25:40;;;;;;;24.70;6.87;;;;;;;;;;4987329;28;20687;-74
2024/02/22 07:28:10;;;;;;;21.63;5.37;;;;;;;;;;4990605;28;20274;-74
2024/02/22 07:30:35;;;;;;;15.77;5.40;;;;;;;;;;4990533;28;20176;-74
2024/02/22 07:33:00;;;;;;;18.50;5.63;;;;;;;;;;4990592;28;20207;-74
2024/02/22 07:35:26;;;;;;;22.43;6.13;;;;;;;;;;4990517;28;20212;-73
2024/02/22 07:37:51;;;;;;;28.33;6.97;;;;;;;;;;4990929;28;20187;-74
2024/02/22 07:40:16;;;;;;;23.23;6.80;;;;;;;;;;4990711;28;20563;-74
2024/02/22 07:42:41;;;;;;;24.73;6.97;;;;;;;;;;4991274;28;20737;-74
2024/02/22 07:45:07;;;;;;;23.10;8.63;;;;;;;;;;4990071;28;20184;-74
2024/02/22 07:47:32;;;;;;;17.90;7.93;;;;;;;;;;4988516;28;20186;-74
2024/02/22 07:49:58;;;;;;;22.80;8.03;;;;;;;;;;4989711;28;20175;-73
2024/02/22 07:52:23;;;;;;;21.00;8.23;;;;;;;;;;4987669;28;20699;-74
2024/02/22 07:54:48;;;;;;;19.80;8.83;;;;;;;;;;4988881;28;20203;-73
2024/02/22 07:57:13;;;;;;;24.47;8.80;;;;;;;;;;4988182;28;20258;-74
2024/02/22 07:59:39;;;;;;;15.60;8.67;;;;;;;;;;4990767;28;20274;-74
2024/02/22 08:02:04;;;;;;;17.37;7.37;;;;;;;;;;4986726;28;20802;-74
2024/02/22 08:04:29;;;;;;;22.63;8.80;;;;;;;;;;4987849;28;20667;-73
2024/02/22 08:06:54;;;;;;;16.92;7.32;;;;;;;;;;4986338;28;20187;-74
2024/02/22 08:09:19;;;;;;;15.90;7.97;;;;;;;;;;4986199;28;20581;-74
2024/02/22 08:11:45;;;;;;;20.37;8.40;;;;;;;;;;4986249;28;20203;-74
2024/02/22 08:14:10;;;;;;;20.57;7.97;;;;;;;;;;4986823;28;20246;-74
2024/02/22 08:16:35;;;;;;;19.43;6.77;;;;;;;;;;4987223;28;20171;-74
2024/02/22 08:19:00;;;;;;;14.10;6.13;;;;;;;;;;4989781;28;20659;-74
2024/02/22 08:21:26;;;;;;;13.25;6.13;;;;;;;;;;4987526;28;20183;-75
2024/02/22 08:23:55;;;;;;;16.25;5.85;;;;;;;;;;4988280;28;20235;-74
2024/02/22 08:26:20;;;;;;;14.90;6.50;;;;;;;;;;4988872;28;20569;-74
2024/02/22 08:28:46;;;;;;;17.08;6.70;;;;;;;;;;4988580;28;20274;-74
2024/02/22 08:31:12;;;;;;;10.93;6.97;;;;;;;;;;4988599;28;20199;-74
2024/02/22 08:33:38;;;;;;;13.80;6.82;;;;;;;;;;4989556;28;20291;-74
2024/02/22 08:36:03;;;;;;;16.98;6.43;;;;;;;;;;4989968;28;20286;-74
2024/02/22 08:38:28;;;;;;;14.15;6.75;;;;;;;;;;4989316;28;20171;-74
2024/02/22 08:40:53;;;;;;;10.65;5.60;;;;;;;;;;4989367;28;20180;-74
2024/02/22 08:43:19;;;;;;;12.95;5.88;;;;;;;;;;4989364;28;20191;-74
2024/02/22 08:45:45;;;;;;;11.98;5.55;;;;;;;;;;4990540;28;20183;-74
2024/02/22 08:48:10;;;;;;;13.15;5.28;;;;;;;;;;4987360;28;20328;-74
2024/02/22 08:50:35;;;;;;;9.50;5.25;;;;;;;;;;4989526;28;20258;-74
2024/02/22 08:53:00;;;;;;;11.38;5.47;;;;;;;;;;4991689;28;20198;-73
2024/02/22 08:55:25;;;;;;;12.70;5.72;;;;;;;;;;4991209;28;20580;-74
2024/02/22 08:57:51;;;;;;;8.05;4.80;;;;;;;;;;4994595;28;20238;-74
2024/02/22 09:00:19;;;;;;;10.90;5.07;;;;;;;;;;4994516;28;20202;-74
2024/02/22 09:02:45;;;;;;;8.98;4.95;;;;;;;;;;4994259;28;20760;-74
2024/02/22 09:05:11;;;;;;;7.68;4.43;;;;;;;;;;4992636;28;20179;-74
2024/02/22 09:07:36;;;;;;;7.78;5.30;;;;;;;;;;4992780;28;20182;-74
2024/02/22 09:10:01;;;;;;;9.30;4.97;;;;;;;;;;4993719;28;20191;-74
2024/02/22 09:12:27;;;;;;;8.70;4.20;;;;;;;;;;4992725;28;20206;-74
2024/02/22 09:14:52;;;;;;;9.05;4.97;;;;;;;;;;4992720;28;20208;-74
2024/02/22 09:17:17;;;;;;;9.32;4.93;;;;;;;;;;4994978;28;20175;-74
2024/02/22 09:19:45;;;;;;;4.88;3.85;;;;;;;;;;4992341;28;20180;-74
2024/02/22 09:22:12;;;;;;;7.30;3.55;;;;;;;;;;4994593;28;20216;-73
2024/02/22 09:24:40;;;;;;;7.05;3.95;;;;;;;;;;4992499;28;20194;-73
2024/02/22 09:27:05;;;;;;;7.65;3.85;;;;;;;;;;4992126;28;20188;-73
2024/02/22 09:29:30;;;;;;;5.97;3.75;;;;;;;;;;4993076;28;20734;-73
2024/02/22 09:31:56;;;;;;;6.38;4.30;;;;;;;;;;4991862;28;20207;-73
2024/02/22 09:34:24;;;;;;;7.95;3.97;;;;;;;;;;4993766;28;20710;-73
2024/02/22 09:36:49;;;;;;;7.72;4.07;;;;;;;;;;4993067;28;20180;-73
2024/02/22 09:39:15;;;;;;;7.13;3.60;;;;;;;;;;4990661;28;20172;-73
2024/02/22 09:41:42;;;;;;;6.85;4.10;;;;;;;;;;4990990;28;20191;-73
2024/02/22 09:44:08;;;;;;;7.40;3.85;;;;;;;;;;4991591;28;20302;-73
2024/02/22 09:46:33;;;;;;;6.13;3.67;;;;;;;;;;4990149;28;20275;-73
2024/02/22 09:48:58;;;;;;;5.97;3.47;;;;;;;;;;4993690;28;20557;-73
2024/02/22 09:51:24;;;;;;;5.38;3.78;;;;;;;;;;4993853;28;20282;-73
2024/02/22 09:53:50;;;;;;;6.07;3.78;;;;;;;;;;4993807;28;20282;-74
2024/02/22 09:56:16;;;;;;;5.32;3.45;;;;;;;;;;4990959;28;20744;-74
2024/02/22 09:58:45;;;;;;;5.65;3.65;;;;;;;;;;4991561;28;20776;-74
2024/02/22 10:01:10;;;;;;;4.40;3.78;;;;;;;;;;4991337;28;20615;-74
2024/02/22 10:03:36;;;;;;;6.13;3.60;;;;;;;;;;4990953;28;20250;-74
2024/02/22 10:06:02;;;;;;;5.40;3.65;;;;;;;;;;4991165;28;20183;-74
2024/02/22 10:08:27;;;;;;;4.20;3.20;;;;;;;;;;4992539;28;20210;-74
2024/02/22 10:11:03;;;;;;;6.53;3.33;;;;;;;;;;4991105;28;20176;-73
2024/02/22 10:13:28;;;;;;;4.90;3.50;;;;;;;;;;4993026;28;20202;-74
2024/02/22 10:15:54;;;;;;;4.38;3.40;;;;;;;;;;4991295;28;20211;-74
2024/02/22 10:18:25;;;;;;;5.25;3.03;;;;;;;;;;4990915;28;20187;-74
2024/02/22 10:20:50;;;;;;;3.42;3.10;;;;;;;;;;4990209;28;20184;-74
2024/02/22 10:23:18;;;;;;;3.78;2.83;;;;;;;;;;4991035;28;20202;-73
2024/02/22 10:25:43;;;;;;;3.47;2.80;;;;;;;;;;4991874;28;20647;-74
2024/02/22 10:28:13;;;;;;;3.00;2.60;;;;;;;;;;4992597;28;20246;-74
2024/02/22 10:30:38;;;;;;;3.08;2.78;;;;;;;;;;4992729;28;20187;-74
2024/02/22 10:33:04;;;;;;;3.67;2.45;;;;;;;;;;4992663;28;20713;-74
2024/02/22 10:35:33;;;;;;;2.55;2.25;;;;;;;;;;4991024;28;20204;-74
2024/02/22 10:37:59;;;;;;;2.80;2.42;;;;;;;;;;4989457;28;20226;-74
2024/02/22 10:40:26;;;;;;;2.20;1.98;;;;;;;;;;4990616;28;20176;-74
2024/02/22 10:42:52;;;;;;;2.58;2.25;;;;;;;;;;4990547;28;20531;-74
2024/02/22 10:45:17;;;;;;;3.00;2.42;;;;;;;;;;4991743;28;20210;-74
2024/02/22 10:47:43;;;;;;;2.92;2.50;;;;;;;;;;4992244;28;20238;-74
2024/02/22 10:50:09;;;;;;;3.10;2.80;;;;;;;;;;4991223;28;20238;-73
2024/02/22 10:52:41;;;;;;;2.83;2.30;;;;;;;;;;4993438;28;20204;-73
2024/02/22 10:55:13;;;;;;;2.65;2.38;;;;;;;;;;4989385;28;20207;-73
2024/02/22 10:57:39;;;;;;;3.10;2.75;;;;;;;;;;4988022;28;20238;-73
2024/02/22 11:00:05;;;;;;;2.55;2.00;;;;;;;;;;4989915;28;20175;-73
2024/02/22 11:02:30;;;;;;;3.47;2.85;;;;;;;;;;4991361;28;20215;-73
2024/02/22 11:05:00;;;;;;;3.30;2.70;;;;;;;;;;4991273;28;20184;-73
2024/02/22 11:07:27;;;;;;;3.90;2.78;;;;;;;;;;4991186;28;20176;-73
2024/02/22 11:09:54;;;;;;;3.10;2.78;;;;;;;;;;4990036;28;20531;-73
2024/02/22 11:12:19;;;;;;;3.40;2.95;;;;;;;;;;4991038;28;20196;-73
2024/02/22 11:14:45;;;;;;;3.35;2.92;;;;;;;;;;4988330;28;20310;-73
2024/02/22 11:17:26;;;;;;;10.45;3.70;;;;;;;;;;4989696;28;20873;-73
2024/02/22 11:19:52;;;;;;;4.40;3.65;;;;;;;;;;4987781;28;20179;-73
2024/02/22 11:22:18;;;;;;;4.28;3.22;;;;;;;;;;4991750;28;20211;-73
2024/02/22 11:24:43;;;;;;;3.70;3.22;;;;;;;;;;4990529;28;20741;-73
2024/02/22 11:27:09;;;;;;;4.57;3.90;;;;;;;;;;4989895;28;20191;-73
2024/02/22 11:29:34;;;;;;;3.83;3.10;;;;;;;;;;4992000;28;20624;-73
2024/02/22 11:32:00;;;;;;;4.82;3.65;;;;;;;;;;4988219;28;20738;-73
2024/02/22 11:34:26;;;;;;;7.03;4.70;;;;;;;;;;4988863;28;20179;-73
2024/02/22 11:36:51;;;;;;;4.47;4.00;;;;;;;;;;4989583;28;20172;-74
2024/02/22 11:39:18;;;;;;;5.10;3.67;;;;;;;;;;4990182;28;20611;-74
2024/02/22 11:41:46;;;;;;;4.32;3.53;;;;;;;;;;4990468;28;20544;-74
2024/02/22 11:44:11;;;;;;;5.88;4.07;;;;;;;;;;4989786;28;20171;-73
2024/02/22 11:46:37;;;;;;;4.50;3.97;;;;;;;;;;4989971;28;20186;-74
2024/02/22 11:49:07;;;;;;;5.05;4.47;;;;;;;;;;4989098;28;20195;-74
2024/02/22 11:51:32;;;;;;;7.78;4.70;;;;;;;;;;4990391;28;20789;-73
2024/02/22 11:53:58;;;;;;;8.10;4.75;;;;;;;;;;4989464;28;20267;-73
2024/02/22 11:56:24;;;;;;;5.32;4.45;;;;;;;;;;4990401;28;20207;-73
2024/02/22 11:58:49;;;;;;;5.18;4.28;;;;;;;;;;4990206;28;20223;-73
2024/02/22 12:01:15;;;;;;;4.93;4.13;;;;;;;;;;4989956;28;20259;-73
2024/02/22 12:03:40;;;;;;;5.70;4.32;;;;;;;;;;4990072;28;20334;-73
2024/02/22 12:06:07;;;;;;;5.75;4.38;;;;;;;;;;4988908;28;20188;-73
2024/02/22 12:08:33;;;;;;;6.50;4.55;;;;;;;;;;4990424;28;20175;-73
2024/02/22 12:11:00;;;;;;;5.78;4.68;;;;;;;;;;4987617;28;20183;-74
2024/02/22 12:13:25;;;;;;;5.75;4.38;;;;;;;;;;4986607;28;20200;-74
2024/02/22 12:16:02;;;;;;;4.70;4.10;;;;;;;;;;4988888;28;20644;-74
2024/02/22 12:18:28;;;;;;;6.40;4.35;;;;;;;;;;4989569;28;20175;-73
2024/02/22 12:20:55;;;;;;;4.03;3.63;;;;;;;;;;4989258;28;20549;-74
2024/02/22 12:23:20;;;;;;;4.68;4.22;;;;;;;;;;4987713;28;20281;-74
2024/02/22 12:25:52;;;;;;;4.40;4.00;;;;;;;;;;4988204;28;20264;-74
2024/02/22 12:28:17;;;;;;;3.95;3.55;;;;;;;;;;4989609;28;20267;-74
2024/02/22 12:30:43;;;;;;;4.05;3.60;;;;;;;;;;4986777;28;20287;-75
2024/02/22 12:33:19;;;;;;;3.65;3.35;;;;;;;;;;4989396;28;20214;-73
2024/02/22 12:35:44;;;;;;;4.50;4.03;;;;;;;;;;4986151;28;20293;-72
2024/02/22 12:38:09;;;;;;;4.15;3.75;;;;;;;;;;4992296;28;20598;-73
2024/02/22 12:40:35;;;;;;;4.25;3.85;;;;;;;;;;4988747;28;20171;-73
2024/02/22 12:43:00;;;;;;;6.32;4.07;;;;;;;;;;4989752;28;20199;-73
2024/02/22 12:45:25;;;;;;;4.07;3.67;;;;;;;;;;4993705;28;20179;-73
2024/02/22 12:47:50;;;;;;;3.65;3.35;;;;;;;;;;4987939;28;20706;-74
2024/02/22 12:50:16;;;;;;;3.58;3.28;;;;;;;;;;4990446;28;20729;-73
2024/02/22 12:52:41;;;;;;;3.08;2.78;;;;;;;;;;4989770;28;20207;-74
2024/02/22 12:55:07;;;;;;;3.78;3.00;;;;;;;;;;4986652;28;20636;-73
2024/02/22 12:57:32;;;;;;;3.17;2.92;;;;;;;;;;4989177;28;20180;-73
2024/02/22 12:59:58;;;;;;;4.18;2.70;;;;;;;;;;4988909;28;20298;-73
2024/02/22 13:02:23;;;;;;;3.42;3.05;;;;;;;;;;4988693;28;20203;-73
2024/02/22 13:04:50;;;;;;;3.88;2.92;;;;;;;;;;4988964;28;20218;-73
2024/02/22 13:07:15;;;;;;;3.20;2.90;;;;;;;;;;4989319;28;20184;-73
2024/02/22 13:09:41;;;;;;;2.95;2.75;;;;;;;;;;4989184;28;20629;-74
2024/02/22 13:12:06;;;;;;;5.18;2.90;;;;;;;;;;4995313;28;20282;-73
2024/02/22 13:14:31;;;;;;;3.53;3.22;;;;;;;;;;4990473;28;20740;-74
2024/02/22 13:16:56;;;;;;;3.22;2.92;;;;;;;;;;4987431;28;20191;-73
2024/02/22 13:19:22;;;;;;;2.65;2.42;;;;;;;;;;4988440;28;20171;-74
2024/02/22 13:21:47;;;;;;;5.13;3.47;;;;;;;;;;4987763;28;20203;-73
2024/02/22 13:24:13;;;;;;;4.32;2.80;;;;;;;;;;4987278;28;20803;-73
2024/02/22 13:26:39;;;;;;;2.83;2.60;;;;;;;;;;4989189;28;20219;-74
2024/02/22 13:29:04;;;;;;;3.00;2.70;;;;;;;;;;4988797;28;20210;-74
2024/02/22 13:31:30;;;;;;;2.90;2.60;;;;;;;;;;4991572;28;20235;-73
2024/02/22 13:33:55;;;;;;;2.28;2.08;;;;;;;;;;4987106;28;20215;-73
2024/02/22 13:36:20;;;;;;;2.80;2.47;;;;;;;;;;4991047;28;20204;-74
2024/02/22 13:38:45;;;;;;;2.40;2.20;;;;;;;;;;4990180;28;20604;-74
2024/02/22 13:41:11;;;;;;;2.22;2.03;;;;;;;;;;4989030;28;20211;-74
2024/02/22 13:43:36;;;;;;;2.53;2.03;;;;;;;;;;4993775;28;20196;-74
2024/02/22 13:46:02;;;;;;;2.60;2.33;;;;;;;;;;4991752;28;20630;-74
2024/02/22 13:48:29;;;;;;;2.78;2.58;;;;;;;;;;4992704;28;20176;-73
2024/02/22 13:50:54;;;;;;;2.53;2.33;;;;;;;;;;4992629;28;20194;-73
2024/02/22 13:53:20;;;;;;;3.22;2.85;;;;;;;;;;4992554;28;20207;-73
2024/02/22 13:55:45;;;;;;;2.70;2.50;;;;;;;;;;4990485;28;20211;-74
2024/02/22 13:58:18;;;;;;;2.67;2.47;;;;;;;;;;4990578;28;20180;-74
2024/02/22 14:00:45;;;;;;;4.13;2.25;;;;;;;;;;4993454;28;20180;-74
2024/02/22 14:03:13;;;;;;;2.50;2.30;;;;;;;;;;4987501;28;20773;-73
2024/02/22 14:05:40;;;;;;;2.38;2.17;;;;;;;;;;4992895;28;20179;-73
2024/02/22 14:08:09;;;;;;;2.38;2.17;;;;;;;;;;4990968;28;20194;-73
2024/02/22 14:10:34;;;;;;;2.20;2.00;;;;;;;;;;4990948;28;20184;-73
2024/02/22 14:13:00;;;;;;;2.40;2.20;;;;;;;;;;4992299;28;20199;-73
2024/02/22 14:15:25;;;;;;;2.42;2.05;;;;;;;;;;4992384;28;20199;-74
2024/02/22 14:17:50;;;;;;;2.13;1.92;;;;;;;;;;4990271;28;20190;-73
2024/02/22 14:20:16;;;;;;;3.38;2.17;;;;;;;;;;4989754;28;20168;-73
2024/02/22 14:22:41;;;;;;;2.65;2.45;;;;;;;;;;4986343;28;20253;-73
2024/02/22 14:25:07;;;;;;;4.95;2.53;;;;;;;;;;4990374;28;20175;-73
2024/02/22 14:27:35;;;;;;;2.15;1.85;;;;;;;;;;4990576;28;20238;-74
2024/02/22 14:30:01;;;;;;;2.38;1.83;;;;;;;;;;4989713;28;20569;-74
2024/02/22 14:32:26;;;;;;;3.42;1.70;;;;;;;;;;4989458;28;20234;-73
2024/02/22 14:34:52;;;;;;;1.20;1.10;;;;;;;;;;4992448;28;20269;-72
2024/02/22 14:37:17;;;;;;;1.55;1.40;;;;;;;;;;4991288;28;20673;-73
2024/02/22 14:39:42;;;;;;;2.05;1.50;;;;;;;;;;4992962;28;20247;-74
2024/02/22 14:42:07;;;;;;;1.35;1.25;;;;;;;;;;4990535;28;20211;-72
2024/02/22 14:44:33;;;;;;;2.38;1.63;;;;;;;;;;4995437;28;20180;-73
2024/02/22 14:46:58;;;;;;;1.60;1.38;;;;;;;;;;4990015;28;20263;-73
2024/02/22 14:49:23;;;;;;;1.25;1.15;;;;;;;;;;4990136;28;20638;-74
2024/02/22 14:51:49;;;;;;;1.08;1.00;;;;;;;;;;4990105;28;20195;-74
2024/02/22 14:54:14;;;;;;;1.85;1.00;;;;;;;;;;4990717;28;20187;-74
2024/02/22 14:56:39;;;;;;;1.60;0.95;;;;;;;;;;4994633;28;20281;-74
2024/02/22 14:59:04;;;;;;;1.20;1.10;;;;;;;;;;4988444;28;20210;-73
2024/02/22 15:01:30;;;;;;;1.42;1.13;;;;;;;;;;4990684;28;20683;-74
2024/02/22 15:03:55;;;;;;;1.50;1.40;;;;;;;;;;4989378;28;20566;-74
2024/02/22 15:06:20;;;;;;;1.20;0.98;;;;;;;;;;4990390;28;20179;-74
2024/02/22 15:08:46;;;;;;;1.33;1.10;;;;;;;;;;4988518;28;20184;-74
2024/02/22 15:11:11;;;;;;;1.60;1.27;;;;;;;;;;4990343;28;20202;-73
2024/02/22 15:13:39;;;;;;;1.15;0.90;;;;;;;;;;4990294;28;20600;-74
2024/02/22 15:16:04;;;;;;;1.08;0.98;;;;;;;;;;4990277;28;20203;-73
2024/02/22 15:18:29;;;;;;;0.75;0.75;;;;;;;;;;4991827;28;20207;-73
2024/02/22 15:20:54;;;;;;;1.40;0.80;;;;;;;;;;4988642;28;20207;-73
2024/02/22 15:23:20;;;;;;;1.20;1.10;;;;;;;;;;4995446;28;20229;-74
2024/02/22 15:25:45;;;;;;;1.08;0.95;;;;;;;;;;4988663;28;20176;-74
2024/02/22 15:28:11;;;;;;;1.10;0.90;;;;;;;;;;4990126;28;20184;-73
2024/02/22 15:30:36;;;;;;;1.00;0.82;;;;;;;;;;4988896;28;20563;-74
2024/02/22 15:33:02;;;;;;;0.88;0.77;;;;;;;;;;4988979;28;20203;-74
2024/02/22 15:35:29;;;;;;;1.10;1.00;;;;;;;;;;4989056;28;20234;-73
2024/02/22 15:37:54;;;;;;;1.20;0.90;;;;;;;;;;4990536;28;20316;-72
2024/02/22 15:40:19;;;;;;;3.50;0.93;;;;;;;;;;4991508;28;20262;-73
2024/02/22 15:42:44;;;;;;;1.00;0.80;;;;;;;;;;4990186;28;20579;-73
2024/02/22 15:45:10;;;;;;;1.35;0.80;;;;;;;;;;4987952;28;20180;-73
2024/02/22 15:47:35;;;;;;;0.93;0.60;;;;;;;;;;4990044;28;20266;-73
2024/02/22 15:50:05;;;;;;;1.55;0.70;;;;;;;;;;4989460;28;20286;-73
2024/02/22 15:52:30;;;;;;;2.13;0.70;;;;;;;;;;4990055;28;20207;-73
2024/02/22 15:54:57;;;;;;;1.25;0.60;;;;;;;;;;4988804;28;20210;-73
2024/02/22 15:57:22;;;;;;;0.70;0.70;;;;;;;;;;4988551;28;20180;-73
2024/02/22 15:59:49;;;;;;;0.93;0.80;;;;;;;;;;4987307;28;20182;-73